sensor_id;sensor_type;location;lat;lon;timestamp;pressure;altitude;pressure_sealevel;temperature;humidity
67029;BME280;53934;52.142;11.738;2022-07-29T00:00:17;101410.00;;;17.64;47.83
67029;BME280;53934;52.142;11.738;2022-07-29T00:02:43;101411.06;;;17.62;48.72
67029;BME280;53934;52.142;11.738;2022-07-29T00:05:09;101402.34;;;17.72;47.90
67029;BME280;53934;52.142;11.738;2022-07-29T00:07:38;101401.09;;;17.65;48.30
67029;BME280;53934;52.142;11.738;2022-07-29T00:10:05;101401.50;;;17.46;49.20
67029;BME280;53934;52.142;11.738;2022-07-29T00:12:31;101391.13;;;17.43;48.90
67029;BME280;53934;52.142;11.738;2022-07-29T00:14:59;101379.88;;;17.40;49.37
67029;BME280;53934;52.142;11.738;2022-07-29T00:17:26;101386.44;;;17.34;49.75
67029;BME280;53934;52.142;11.738;2022-07-29T00:19:52;101381.25;;;17.45;49.21
67029;BME280;53934;52.142;11.738;2022-07-29T00:22:19;101375.50;;;17.51;48.78
67029;BME280;53934;52.142;11.738;2022-07-29T00:24:47;101377.19;;;17.52;48.92
67029;BME280;53934;52.142;11.738;2022-07-29T00:27:13;101372.66;;;17.55;48.96
67029;BME280;53934;52.142;11.738;2022-07-29T00:29:40;101370.63;;;17.45;48.73
67029;BME280;53934;52.142;11.738;2022-07-29T00:32:07;101361.72;;;17.59;48.51
67029;BME280;53934;52.142;11.738;2022-07-29T00:34:34;101357.81;;;17.65;48.06
67029;BME280;53934;52.142;11.738;2022-07-29T00:37:18;101355.69;;;17.57;49.25
67029;BME280;53934;52.142;11.738;2022-07-29T00:39:44;101352.47;;;17.52;48.62
67029;BME280;53934;52.142;11.738;2022-07-29T00:42:11;101356.22;;;17.62;48.69
67029;BME280;53934;52.142;11.738;2022-07-29T00:44:38;101348.97;;;17.51;48.74
67029;BME280;53934;52.142;11.738;2022-07-29T00:47:05;101350.19;;;17.47;48.72
67029;BME280;53934;52.142;11.738;2022-07-29T00:49:34;101349.66;;;17.42;48.90
67029;BME280;53934;52.142;11.738;2022-07-29T00:52:00;101346.13;;;17.55;48.50
67029;BME280;53934;52.142;11.738;2022-07-29T00:54:27;101345.50;;;17.38;49.00
67029;BME280;53934;52.142;11.738;2022-07-29T00:56:54;101340.66;;;17.58;48.04
67029;BME280;53934;52.142;11.738;2022-07-29T00:59:21;101338.50;;;17.37;49.44
67029;BME280;53934;52.142;11.738;2022-07-29T01:01:47;101332.56;;;17.34;48.89
67029;BME280;53934;52.142;11.738;2022-07-29T01:04:14;101333.66;;;17.31;48.84
67029;BME280;53934;52.142;11.738;2022-07-29T01:06:42;101333.34;;;17.23;50.02
67029;BME280;53934;52.142;11.738;2022-07-29T01:09:09;101323.50;;;17.13;49.66
67029;BME280;53934;52.142;11.738;2022-07-29T01:11:36;101321.69;;;17.00;49.55
67029;BME280;53934;52.142;11.738;2022-07-29T01:14:03;101318.94;;;17.02;49.95
67029;BME280;53934;52.142;11.738;2022-07-29T01:16:33;101318.63;;;17.07;49.59
67029;BME280;53934;52.142;11.738;2022-07-29T01:19:07;101319.69;;;16.91;49.60
67029;BME280;53934;52.142;11.738;2022-07-29T01:21:50;101302.28;;;17.00;50.15
67029;BME280;53934;52.142;11.738;2022-07-29T01:24:33;101300.63;;;16.99;49.99
67029;BME280;53934;52.142;11.738;2022-07-29T01:27:11;101303.34;;;16.97;50.37
67029;BME280;53934;52.142;11.738;2022-07-29T01:29:44;101295.09;;;17.02;50.50
67029;BME280;53934;52.142;11.738;2022-07-29T01:32:13;101292.53;;;17.00;50.70
67029;BME280;53934;52.142;11.738;2022-07-29T01:34:42;101299.09;;;17.08;50.32
67029;BME280;53934;52.142;11.738;2022-07-29T01:37:16;101292.22;;;16.92;50.88
67029;BME280;53934;52.142;11.738;2022-07-29T01:39:46;101293.69;;;16.71;51.60
67029;BME280;53934;52.142;11.738;2022-07-29T01:42:17;101294.03;;;16.79;51.45
67029;BME280;53934;52.142;11.738;2022-07-29T01:44:54;101291.19;;;16.70;51.90
67029;BME280;53934;52.142;11.738;2022-07-29T01:47:26;101288.84;;;16.65;52.21
67029;BME280;53934;52.142;11.738;2022-07-29T01:49:58;101288.69;;;16.54;52.56
67029;BME280;53934;52.142;11.738;2022-07-29T01:52:31;101293.94;;;16.29;53.45
67029;BME280;53934;52.142;11.738;2022-07-29T01:55:04;101293.09;;;16.28;53.47
67029;BME280;53934;52.142;11.738;2022-07-29T01:57:32;101288.44;;;16.32;53.77
67029;BME280;53934;52.142;11.738;2022-07-29T02:00:02;101279.34;;;16.48;52.77
67029;BME280;53934;52.142;11.738;2022-07-29T02:02:30;101286.53;;;16.34;53.31
67029;BME280;53934;52.142;11.738;2022-07-29T02:04:59;101272.69;;;16.43;52.87
67029;BME280;53934;52.142;11.738;2022-07-29T02:07:28;101271.53;;;16.47;53.02
67029;BME280;53934;52.142;11.738;2022-07-29T02:09:56;101276.22;;;16.56;52.84
67029;BME280;53934;52.142;11.738;2022-07-29T02:12:25;101265.81;;;16.53;52.97
67029;BME280;53934;52.142;11.738;2022-07-29T02:14:53;101264.94;;;16.52;53.42
67029;BME280;53934;52.142;11.738;2022-07-29T02:17:26;101257.94;;;16.39;53.22
67029;BME280;53934;52.142;11.738;2022-07-29T02:19:56;101257.09;;;16.26;54.04
67029;BME280;53934;52.142;11.738;2022-07-29T02:22:24;101265.63;;;16.17;54.39
67029;BME280;53934;52.142;11.738;2022-07-29T02:24:52;101261.97;;;16.32;54.80
67029;BME280;53934;52.142;11.738;2022-07-29T02:27:19;101262.03;;;16.57;53.34
67029;BME280;53934;52.142;11.738;2022-07-29T02:29:47;101259.78;;;16.51;53.82
67029;BME280;53934;52.142;11.738;2022-07-29T02:32:15;101259.97;;;16.35;54.90
67029;BME280;53934;52.142;11.738;2022-07-29T02:34:44;101266.28;;;16.72;53.13
67029;BME280;53934;52.142;11.738;2022-07-29T02:37:12;101268.06;;;16.72;53.70
67029;BME280;53934;52.142;11.738;2022-07-29T02:39:42;101263.00;;;16.69;53.92
67029;BME280;53934;52.142;11.738;2022-07-29T02:42:11;101264.69;;;16.57;54.36
67029;BME280;53934;52.142;11.738;2022-07-29T02:44:38;101261.94;;;16.59;54.61
67029;BME280;53934;52.142;11.738;2022-07-29T02:47:10;101265.81;;;16.53;55.11
67029;BME280;53934;52.142;11.738;2022-07-29T02:49:47;101270.38;;;16.51;55.20
67029;BME280;53934;52.142;11.738;2022-07-29T02:52:19;101260.09;;;16.46;55.16
67029;BME280;53934;52.142;11.738;2022-07-29T02:55:00;101261.66;;;16.49;55.48
67029;BME280;53934;52.142;11.738;2022-07-29T02:57:32;101266.88;;;16.50;55.63
67029;BME280;53934;52.142;11.738;2022-07-29T03:00:02;101263.72;;;16.58;55.55
67029;BME280;53934;52.142;11.738;2022-07-29T03:02:33;101254.38;;;16.52;56.04
67029;BME280;53934;52.142;11.738;2022-07-29T03:05:02;101263.59;;;16.47;55.65
67029;BME280;53934;52.142;11.738;2022-07-29T03:07:29;101270.59;;;16.61;55.75
67029;BME280;53934;52.142;11.738;2022-07-29T03:09:56;101263.22;;;16.66;56.10
67029;BME280;53934;52.142;11.738;2022-07-29T03:12:23;101258.78;;;16.66;55.52
67029;BME280;53934;52.142;11.738;2022-07-29T03:14:50;101259.50;;;16.68;55.51
67029;BME280;53934;52.142;11.738;2022-07-29T03:17:17;101249.31;;;16.75;55.76
67029;BME280;53934;52.142;11.738;2022-07-29T03:19:44;101245.38;;;16.55;56.25
67029;BME280;53934;52.142;11.738;2022-07-29T03:22:12;101250.28;;;16.61;56.17
67029;BME280;53934;52.142;11.738;2022-07-29T03:24:38;101248.34;;;16.50;56.73
67029;BME280;53934;52.142;11.738;2022-07-29T03:27:05;101250.78;;;16.53;56.66
67029;BME280;53934;52.142;11.738;2022-07-29T03:29:31;101253.13;;;16.71;55.84
67029;BME280;53934;52.142;11.738;2022-07-29T03:31:58;101251.13;;;16.87;55.98
67029;BME280;53934;52.142;11.738;2022-07-29T03:34:24;101252.28;;;16.95;55.36
67029;BME280;53934;52.142;11.738;2022-07-29T03:36:51;101256.84;;;16.93;55.63
67029;BME280;53934;52.142;11.738;2022-07-29T03:39:22;101251.22;;;16.98;55.35
67029;BME280;53934;52.142;11.738;2022-07-29T03:41:52;101250.59;;;16.94;55.63
67029;BME280;53934;52.142;11.738;2022-07-29T03:44:20;101252.94;;;16.99;55.92
67029;BME280;53934;52.142;11.738;2022-07-29T03:46:48;101239.09;;;17.19;54.90
67029;BME280;53934;52.142;11.738;2022-07-29T03:49:18;101244.94;;;17.24;54.60
67029;BME280;53934;52.142;11.738;2022-07-29T03:51:45;101246.72;;;17.24;55.66
67029;BME280;53934;52.142;11.738;2022-07-29T03:54:12;101238.25;;;17.19;55.72
67029;BME280;53934;52.142;11.738;2022-07-29T03:56:43;101241.88;;;17.18;55.71
67029;BME280;53934;52.142;11.738;2022-07-29T03:59:13;101242.06;;;17.15;55.69
67029;BME280;53934;52.142;11.738;2022-07-29T04:01:41;101229.88;;;17.25;55.81
67029;BME280;53934;52.142;11.738;2022-07-29T04:04:08;101239.41;;;17.27;57.08
67029;BME280;53934;52.142;11.738;2022-07-29T04:06:39;101236.72;;;17.40;55.85
67029;BME280;53934;52.142;11.738;2022-07-29T04:09:05;101231.13;;;17.56;57.37
67029;BME280;53934;52.142;11.738;2022-07-29T04:11:32;101236.31;;;17.33;56.58
67029;BME280;53934;52.142;11.738;2022-07-29T04:14:00;101233.88;;;17.30;57.41
67029;BME280;53934;52.142;11.738;2022-07-29T04:16:26;101235.09;;;17.50;56.94
67029;BME280;53934;52.142;11.738;2022-07-29T04:18:53;101248.22;;;17.51;56.47
67029;BME280;53934;52.142;11.738;2022-07-29T04:21:19;101241.44;;;17.60;57.46
67029;BME280;53934;52.142;11.738;2022-07-29T04:23:45;101241.44;;;17.60;56.70
67029;BME280;53934;52.142;11.738;2022-07-29T04:26:14;101252.59;;;17.52;57.03
67029;BME280;53934;52.142;11.738;2022-07-29T04:28:41;101249.63;;;17.57;57.62
67029;BME280;53934;52.142;11.738;2022-07-29T04:31:09;101249.09;;;17.88;56.62
67029;BME280;53934;52.142;11.738;2022-07-29T04:33:35;101241.84;;;17.67;57.20
67029;BME280;53934;52.142;11.738;2022-07-29T04:36:02;101251.75;;;17.88;57.66
67029;BME280;53934;52.142;11.738;2022-07-29T04:38:29;101255.44;;;17.86;57.82
67029;BME280;53934;52.142;11.738;2022-07-29T04:40:55;101249.81;;;18.14;56.73
67029;BME280;53934;52.142;11.738;2022-07-29T04:43:21;101254.41;;;18.23;56.61
67029;BME280;53934;52.142;11.738;2022-07-29T04:45:49;101252.56;;;18.47;55.69
67029;BME280;53934;52.142;11.738;2022-07-29T04:48:16;101257.72;;;18.49;56.38
67029;BME280;53934;52.142;11.738;2022-07-29T04:50:43;101258.13;;;18.56;55.21
67029;BME280;53934;52.142;11.738;2022-07-29T04:53:10;101265.28;;;18.77;55.41
67029;BME280;53934;52.142;11.738;2022-07-29T04:55:36;101257.78;;;18.60;55.19
67029;BME280;53934;52.142;11.738;2022-07-29T04:58:02;101261.44;;;18.81;55.33
67029;BME280;53934;52.142;11.738;2022-07-29T05:00:29;101262.19;;;19.06;54.83
67029;BME280;53934;52.142;11.738;2022-07-29T05:02:55;101259.28;;;19.09;55.11
67029;BME280;53934;52.142;11.738;2022-07-29T05:05:23;101255.78;;;19.19;55.41
67029;BME280;53934;52.142;11.738;2022-07-29T05:07:49;101242.25;;;19.11;54.77
67029;BME280;53934;52.142;11.738;2022-07-29T05:10:15;101249.84;;;19.27;53.96
67029;BME280;53934;52.142;11.738;2022-07-29T05:12:42;101247.81;;;19.41;53.76
67029;BME280;53934;52.142;11.738;2022-07-29T05:15:09;101234.25;;;19.44;53.41
67029;BME280;53934;52.142;11.738;2022-07-29T05:17:36;101243.34;;;19.09;53.45
67029;BME280;53934;52.142;11.738;2022-07-29T05:20:03;101241.25;;;19.34;53.71
67029;BME280;53934;52.142;11.738;2022-07-29T05:22:31;101233.53;;;19.42;53.32
67029;BME280;53934;52.142;11.738;2022-07-29T05:24:58;101243.81;;;19.58;53.82
67029;BME280;53934;52.142;11.738;2022-07-29T05:27:24;101234.72;;;19.61;52.23
67029;BME280;53934;52.142;11.738;2022-07-29T05:29:51;101238.63;;;19.77;51.90
67029;BME280;53934;52.142;11.738;2022-07-29T05:32:17;101234.78;;;19.70;51.65
67029;BME280;53934;52.142;11.738;2022-07-29T05:34:44;101236.56;;;19.49;52.90
67029;BME280;53934;52.142;11.738;2022-07-29T05:37:10;101231.31;;;19.59;52.24
67029;BME280;53934;52.142;11.738;2022-07-29T05:39:39;101231.91;;;19.62;51.87
67029;BME280;53934;52.142;11.738;2022-07-29T05:42:08;101243.44;;;19.29;52.59
67029;BME280;53934;52.142;11.738;2022-07-29T05:44:36;101235.94;;;19.23;52.93
67029;BME280;53934;52.142;11.738;2022-07-29T05:47:02;101240.03;;;19.38;52.78
67029;BME280;53934;52.142;11.738;2022-07-29T05:49:28;101246.69;;;19.55;52.12
67029;BME280;53934;52.142;11.738;2022-07-29T05:51:55;101241.06;;;19.80;51.70
67029;BME280;53934;52.142;11.738;2022-07-29T05:54:21;101238.38;;;19.91;51.35
67029;BME280;53934;52.142;11.738;2022-07-29T05:56:49;101237.97;;;19.96;51.31
67029;BME280;53934;52.142;11.738;2022-07-29T05:59:15;101242.97;;;19.89;51.18
67029;BME280;53934;52.142;11.738;2022-07-29T06:01:41;101250.25;;;20.08;51.48
67029;BME280;53934;52.142;11.738;2022-07-29T06:04:08;101247.66;;;19.65;52.19
67029;BME280;53934;52.142;11.738;2022-07-29T06:06:34;101244.94;;;19.76;51.58
67029;BME280;53934;52.142;11.738;2022-07-29T06:09:00;101248.38;;;19.99;51.71
67029;BME280;53934;52.142;11.738;2022-07-29T06:11:27;101244.75;;;20.32;50.48
67029;BME280;53934;52.142;11.738;2022-07-29T06:13:55;101248.38;;;20.52;50.48
67029;BME280;53934;52.142;11.738;2022-07-29T06:16:21;101252.56;;;20.75;50.11
67029;BME280;53934;52.142;11.738;2022-07-29T06:18:48;101249.94;;;20.84;49.91
67029;BME280;53934;52.142;11.738;2022-07-29T06:21:14;101240.81;;;21.38;49.99
67029;BME280;53934;52.142;11.738;2022-07-29T06:23:40;101235.47;;;21.48;47.44
67029;BME280;53934;52.142;11.738;2022-07-29T06:26:07;101239.72;;;21.60;48.02
67029;BME280;53934;52.142;11.738;2022-07-29T06:28:33;101243.53;;;21.86;47.08
67029;BME280;53934;52.142;11.738;2022-07-29T06:31:01;101243.69;;;21.65;46.64
67029;BME280;53934;52.142;11.738;2022-07-29T06:33:27;101245.09;;;22.17;46.54
67029;BME280;53934;52.142;11.738;2022-07-29T06:35:54;101248.34;;;22.11;47.96
67029;BME280;53934;52.142;11.738;2022-07-29T06:38:20;101251.72;;;22.32;46.94
67029;BME280;53934;52.142;11.738;2022-07-29T06:40:47;101248.44;;;22.67;46.67
67029;BME280;53934;52.142;11.738;2022-07-29T06:43:31;101248.53;;;22.85;46.29
67029;BME280;53934;52.142;11.738;2022-07-29T06:46:04;101241.22;;;22.87;46.22
67029;BME280;53934;52.142;11.738;2022-07-29T06:48:31;101247.78;;;22.37;45.34
67029;BME280;53934;52.142;11.738;2022-07-29T06:50:58;101238.09;;;22.26;46.60
67029;BME280;53934;52.142;11.738;2022-07-29T06:53:24;101240.88;;;22.44;46.78
67029;BME280;53934;52.142;11.738;2022-07-29T06:55:51;101244.16;;;22.28;45.77
67029;BME280;53934;52.142;11.738;2022-07-29T06:58:17;101236.13;;;22.18;46.61
67029;BME280;53934;52.142;11.738;2022-07-29T07:00:46;101231.78;;;22.08;46.91
67029;BME280;53934;52.142;11.738;2022-07-29T07:03:14;101230.78;;;21.99;47.62
67029;BME280;53934;52.142;11.738;2022-07-29T07:05:40;101231.22;;;22.04;47.33
67029;BME280;53934;52.142;11.738;2022-07-29T07:08:06;101232.72;;;21.78;46.53
67029;BME280;53934;52.142;11.738;2022-07-29T07:10:33;101229.34;;;21.76;46.27
67029;BME280;53934;52.142;11.738;2022-07-29T07:13:00;101237.94;;;21.79;47.82
67029;BME280;53934;52.142;11.738;2022-07-29T07:15:27;101244.25;;;21.78;47.03
67029;BME280;53934;52.142;11.738;2022-07-29T07:17:53;101250.75;;;22.14;48.62
67029;BME280;53934;52.142;11.738;2022-07-29T07:20:21;101247.88;;;22.64;47.22
67029;BME280;53934;52.142;11.738;2022-07-29T07:22:47;101246.22;;;23.09;44.92
67029;BME280;53934;52.142;11.738;2022-07-29T07:25:13;101242.09;;;23.87;45.01
67029;BME280;53934;52.142;11.738;2022-07-29T07:27:40;101240.03;;;24.34;43.14
67029;BME280;53934;52.142;11.738;2022-07-29T07:30:07;101246.66;;;24.99;39.84
67029;BME280;53934;52.142;11.738;2022-07-29T07:32:35;101244.56;;;25.53;41.16
67029;BME280;53934;52.142;11.738;2022-07-29T07:35:03;101238.59;;;25.99;41.30
67029;BME280;53934;52.142;11.738;2022-07-29T07:37:31;101247.28;;;24.42;41.44
67029;BME280;53934;52.142;11.738;2022-07-29T07:39:58;101243.34;;;23.48;42.72
67029;BME280;53934;52.142;11.738;2022-07-29T07:42:24;101241.28;;;23.42;42.57
67029;BME280;53934;52.142;11.738;2022-07-29T07:44:51;101231.91;;;23.73;43.37
67029;BME280;53934;52.142;11.738;2022-07-29T07:47:18;101243.41;;;23.83;43.64
67029;BME280;53934;52.142;11.738;2022-07-29T07:49:45;101242.56;;;23.83;42.48
67029;BME280;53934;52.142;11.738;2022-07-29T07:52:11;101231.66;;;23.49;43.84
67029;BME280;53934;52.142;11.738;2022-07-29T07:54:39;101228.06;;;23.31;43.68
67029;BME280;53934;52.142;11.738;2022-07-29T07:57:05;101223.06;;;23.18;44.91
67029;BME280;53934;52.142;11.738;2022-07-29T07:59:32;101224.88;;;22.90;45.36
67029;BME280;53934;52.142;11.738;2022-07-29T08:01:58;101229.25;;;23.18;44.49
67029;BME280;53934;52.142;11.738;2022-07-29T08:04:26;101237.69;;;23.51;43.84
67029;BME280;53934;52.142;11.738;2022-07-29T08:06:52;101238.28;;;23.72;43.85
67029;BME280;53934;52.142;11.738;2022-07-29T08:09:19;101244.28;;;24.09;45.75
67029;BME280;53934;52.142;11.738;2022-07-29T08:11:47;101246.66;;;24.73;42.09
67029;BME280;53934;52.142;11.738;2022-07-29T08:14:13;101252.56;;;25.45;42.94
67029;BME280;53934;52.142;11.738;2022-07-29T08:16:39;101244.47;;;26.11;39.10
67029;BME280;53934;52.142;11.738;2022-07-29T08:19:07;101239.97;;;26.36;40.62
67029;BME280;53934;52.142;11.738;2022-07-29T08:21:33;101230.53;;;26.48;38.37
67029;BME280;53934;52.142;11.738;2022-07-29T08:23:59;101234.25;;;25.90;39.05
67029;BME280;53934;52.142;11.738;2022-07-29T08:26:40;101237.75;;;25.99;40.71
67029;BME280;53934;52.142;11.738;2022-07-29T08:29:08;101230.00;;;25.80;41.67
67029;BME280;53934;52.142;11.738;2022-07-29T08:31:34;101234.72;;;26.10;40.84
67029;BME280;53934;52.142;11.738;2022-07-29T08:34:01;101234.94;;;26.33;40.17
67029;BME280;53934;52.142;11.738;2022-07-29T08:36:27;101236.22;;;26.69;39.70
67029;BME280;53934;52.142;11.738;2022-07-29T08:38:54;101241.00;;;27.06;38.92
67029;BME280;53934;52.142;11.738;2022-07-29T08:41:21;101237.56;;;27.28;40.73
67029;BME280;53934;52.142;11.738;2022-07-29T08:43:47;101224.53;;;27.48;36.36
67029;BME280;53934;52.142;11.738;2022-07-29T08:46:15;101225.94;;;27.67;37.78
67029;BME280;53934;52.142;11.738;2022-07-29T08:48:42;101222.97;;;28.44;35.88
67029;BME280;53934;52.142;11.738;2022-07-29T08:51:13;101219.94;;;28.02;35.06
67029;BME280;53934;52.142;11.738;2022-07-29T08:53:42;101222.47;;;28.03;36.72
67029;BME280;53934;52.142;11.738;2022-07-29T08:56:11;101226.25;;;28.17;37.18
67029;BME280;53934;52.142;11.738;2022-07-29T08:58:39;101217.78;;;28.20;35.24
67029;BME280;53934;52.142;11.738;2022-07-29T09:01:06;101217.94;;;28.27;36.41
67029;BME280;53934;52.142;11.738;2022-07-29T09:03:36;101218.84;;;29.00;35.13
67029;BME280;53934;52.142;11.738;2022-07-29T09:06:04;101226.50;;;28.82;34.72
67029;BME280;53934;52.142;11.738;2022-07-29T09:08:32;101215.28;;;29.15;36.31
67029;BME280;53934;52.142;11.738;2022-07-29T09:11:00;101212.81;;;30.55;35.14
67029;BME280;53934;52.142;11.738;2022-07-29T09:13:27;101215.25;;;30.01;32.39
67029;BME280;53934;52.142;11.738;2022-07-29T09:15:53;101207.97;;;30.51;30.82
67029;BME280;53934;52.142;11.738;2022-07-29T09:18:37;101210.91;;;30.83;31.21
67029;BME280;53934;52.142;11.738;2022-07-29T09:21:05;101213.44;;;30.91;31.33
67029;BME280;53934;52.142;11.738;2022-07-29T09:24:10;101205.06;;;30.86;30.17
67029;BME280;53934;52.142;11.738;2022-07-29T09:26:39;101201.22;;;30.68;30.72
67029;BME280;53934;52.142;11.738;2022-07-29T09:29:11;101200.47;;;31.21;34.70
67029;BME280;53934;52.142;11.738;2022-07-29T09:31:39;101207.50;;;31.09;31.45
67029;BME280;53934;52.142;11.738;2022-07-29T09:34:08;101204.31;;;31.47;31.03
67029;BME280;53934;52.142;11.738;2022-07-29T09:36:39;101185.09;;;31.42;28.88
67029;BME280;53934;52.142;11.738;2022-07-29T09:39:06;101193.25;;;30.94;31.07
67029;BME280;53934;52.142;11.738;2022-07-29T09:41:44;101183.56;;;31.73;31.82
67029;BME280;53934;52.142;11.738;2022-07-29T09:44:11;101177.50;;;31.98;29.37
67029;BME280;53934;52.142;11.738;2022-07-29T09:46:38;101177.91;;;32.73;31.75
67029;BME280;53934;52.142;11.738;2022-07-29T09:49:10;101186.34;;;33.10;28.36
67029;BME280;53934;52.142;11.738;2022-07-29T09:51:37;101173.16;;;32.36;25.08
67029;BME280;53934;52.142;11.738;2022-07-29T09:54:21;101170.00;;;32.39;26.87
67029;BME280;53934;52.142;11.738;2022-07-29T09:56:47;101166.44;;;31.79;27.98
67029;BME280;53934;52.142;11.738;2022-07-29T09:59:14;101167.91;;;31.56;29.68
67029;BME280;53934;52.142;11.738;2022-07-29T10:01:40;101170.19;;;32.57;29.59
67029;BME280;53934;52.142;11.738;2022-07-29T10:04:08;101159.31;;;32.57;26.90
67029;BME280;53934;52.142;11.738;2022-07-29T10:06:35;101157.06;;;31.62;26.49
67029;BME280;53934;52.142;11.738;2022-07-29T10:09:07;101154.53;;;31.67;29.46
67029;BME280;53934;52.142;11.738;2022-07-29T10:11:34;101156.00;;;32.62;27.89
67029;BME280;53934;52.142;11.738;2022-07-29T10:14:02;101154.72;;;32.64;24.18
67029;BME280;53934;52.142;11.738;2022-07-29T10:16:29;101152.59;;;32.79;27.62
67029;BME280;53934;52.142;11.738;2022-07-29T10:18:58;101150.41;;;33.14;25.27
67029;BME280;53934;52.142;11.738;2022-07-29T10:21:26;101137.88;;;34.01;24.94
67029;BME280;53934;52.142;11.738;2022-07-29T10:23:53;101141.41;;;33.45;23.49
67029;BME280;53934;52.142;11.738;2022-07-29T10:26:20;101134.16;;;33.70;24.91
67029;BME280;53934;52.142;11.738;2022-07-29T10:28:46;101124.50;;;34.24;24.74
67029;BME280;53934;52.142;11.738;2022-07-29T10:31:19;101128.38;;;34.53;24.33
67029;BME280;53934;52.142;11.738;2022-07-29T10:33:53;101122.72;;;34.91;25.03
67029;BME280;53934;52.142;11.738;2022-07-29T10:36:37;101126.19;;;34.43;21.01
67029;BME280;53934;52.142;11.738;2022-07-29T10:39:16;101117.34;;;33.17;22.84
67029;BME280;53934;52.142;11.738;2022-07-29T10:42:05;101118.44;;;33.03;25.64
67029;BME280;53934;52.142;11.738;2022-07-29T10:44:39;101107.31;;;33.49;26.76
67029;BME280;53934;52.142;11.738;2022-07-29T10:47:06;101097.13;;;33.38;30.00
67029;BME280;53934;52.142;11.738;2022-07-29T10:49:32;101106.09;;;33.01;22.36
67029;BME280;53934;52.142;11.738;2022-07-29T10:52:03;101107.09;;;32.68;23.46
67029;BME280;53934;52.142;11.738;2022-07-29T10:54:37;101102.50;;;33.51;25.02
67029;BME280;53934;52.142;11.738;2022-07-29T10:57:12;101101.47;;;33.77;23.49
67029;BME280;53934;52.142;11.738;2022-07-29T10:59:38;101097.06;;;34.44;23.44
67029;BME280;53934;52.142;11.738;2022-07-29T11:05:06;101097.69;;;34.64;23.53
67029;BME280;53934;52.142;11.738;2022-07-29T11:07:36;101094.25;;;33.33;21.87
67029;BME280;53934;52.142;11.738;2022-07-29T11:10:23;101092.22;;;33.85;21.90
67029;BME280;53934;52.142;11.738;2022-07-29T11:12:49;101088.59;;;34.09;23.21
67029;BME280;53934;52.142;11.738;2022-07-29T11:15:18;101084.06;;;34.46;23.89
67029;BME280;53934;52.142;11.738;2022-07-29T11:18:07;101090.16;;;34.41;22.96
67029;BME280;53934;52.142;11.738;2022-07-29T11:20:35;101076.44;;;34.11;21.96
67029;BME280;53934;52.142;11.738;2022-07-29T11:26:14;101079.63;;;34.99;22.37
67029;BME280;53934;52.142;11.738;2022-07-29T11:28:54;101084.50;;;35.39;22.44
67029;BME280;53934;52.142;11.738;2022-07-29T11:31:33;101096.06;;;34.56;21.62
67029;BME280;53934;52.142;11.738;2022-07-29T11:34:21;101089.28;;;34.04;23.95
67029;BME280;53934;52.142;11.738;2022-07-29T11:37:16;101076.25;;;34.31;22.44
67029;BME280;53934;52.142;11.738;2022-07-29T11:39:44;101080.78;;;34.19;21.00
67029;BME280;53934;52.142;11.738;2022-07-29T11:42:41;101078.94;;;33.70;21.44
67029;BME280;53934;52.142;11.738;2022-07-29T11:45:09;101080.81;;;33.38;22.88
67029;BME280;53934;52.142;11.738;2022-07-29T11:47:37;101071.50;;;33.84;21.85
67029;BME280;53934;52.142;11.738;2022-07-29T11:50:05;101073.91;;;34.16;21.90
67029;BME280;53934;52.142;11.738;2022-07-29T11:52:32;101062.38;;;33.15;21.84
67029;BME280;53934;52.142;11.738;2022-07-29T11:55:03;101061.28;;;33.23;21.11
67029;BME280;53934;52.142;11.738;2022-07-29T11:57:30;101059.25;;;33.93;21.36
67029;BME280;53934;52.142;11.738;2022-07-29T11:59:58;101058.81;;;33.96;20.63
67029;BME280;53934;52.142;11.738;2022-07-29T12:02:24;101064.47;;;33.94;21.71
67029;BME280;53934;52.142;11.738;2022-07-29T12:05:04;101063.13;;;32.91;21.86
67029;BME280;53934;52.142;11.738;2022-07-29T12:07:32;101063.47;;;33.01;20.34
67029;BME280;53934;52.142;11.738;2022-07-29T12:09:59;101066.75;;;32.72;20.67
67029;BME280;53934;52.142;11.738;2022-07-29T12:12:25;101062.34;;;32.13;21.15
67029;BME280;53934;52.142;11.738;2022-07-29T12:14:52;101050.41;;;31.16;22.28
67029;BME280;53934;52.142;11.738;2022-07-29T12:17:28;101052.06;;;30.56;23.99
67029;BME280;53934;52.142;11.738;2022-07-29T12:19:56;101055.94;;;30.40;23.79
67029;BME280;53934;52.142;11.738;2022-07-29T12:22:26;101056.25;;;31.13;23.74
67029;BME280;53934;52.142;11.738;2022-07-29T12:24:53;101056.28;;;31.32;24.36
67029;BME280;53934;52.142;11.738;2022-07-29T12:27:19;101053.16;;;31.35;23.13
67029;BME280;53934;52.142;11.738;2022-07-29T12:29:55;101044.97;;;31.03;24.27
67029;BME280;53934;52.142;11.738;2022-07-29T12:32:22;101043.19;;;31.56;24.39
67029;BME280;53934;52.142;11.738;2022-07-29T12:34:50;101039.19;;;31.91;23.48
67029;BME280;53934;52.142;11.738;2022-07-29T12:37:17;101042.09;;;32.03;22.12
67029;BME280;53934;52.142;11.738;2022-07-29T12:39:43;101044.88;;;31.63;23.16
67029;BME280;53934;52.142;11.738;2022-07-29T12:42:11;101035.41;;;32.25;23.85
67029;BME280;53934;52.142;11.738;2022-07-29T12:44:45;101043.72;;;32.37;21.61
67029;BME280;53934;52.142;11.738;2022-07-29T12:47:11;101032.50;;;32.71;23.25
67029;BME280;53934;52.142;11.738;2022-07-29T12:49:38;101023.66;;;33.20;22.80
67029;BME280;53934;52.142;11.738;2022-07-29T12:52:30;101019.25;;;32.88;21.64
67029;BME280;53934;52.142;11.738;2022-07-29T12:54:57;101031.03;;;33.44;21.71